createdAt,value
2022-09-11T00:00:41.871Z,99433.91
2022-09-11T00:03:08.445Z,99432.38
2022-09-11T00:05:39.801Z,99430.03
2022-09-11T00:08:12.002Z,99439.31
2022-09-11T00:10:40.755Z,99433.91
2022-09-11T00:13:08.087Z,99429.53
2022-09-11T00:15:39.295Z,99433.91
2022-09-11T00:18:07.710Z,99430.38
2022-09-11T00:20:35.194Z,99425.63
2022-09-11T00:23:04.897Z,99425.97
2022-09-11T00:25:36.056Z,99433.75
2022-09-11T00:28:02.922Z,99430.34
2022-09-11T00:30:30.051Z,99429.19
2022-09-11T00:32:56.427Z,99433.06
2022-09-11T00:35:22.821Z,99423.78
2022-09-11T00:37:49.230Z,99432.03
2022-09-11T00:40:17.261Z,99425.63
2022-09-11T00:42:44.406Z,99429.00
2022-09-11T00:45:26.411Z,99425.28
2022-09-11T00:47:58.346Z,99419.22
2022-09-11T00:50:27.932Z,99433.94
2022-09-11T00:53:02.467Z,99418.56
2022-09-11T00:55:32.455Z,99433.75
2022-09-11T00:58:03.967Z,99428.34
2022-09-11T01:00:30.799Z,99431.06
2022-09-11T01:02:57.906Z,99432.13
2022-09-11T01:05:27.644Z,99437.22
2022-09-11T01:07:56.036Z,99427.03
2022-09-11T01:10:57.791Z,99437.88
2022-09-11T01:13:56.931Z,99427.09
2022-09-11T01:16:42.848Z,99433.22
2022-09-11T01:19:46.352Z,99432.88
2022-09-11T01:23:02.849Z,99431.16
2022-09-11T01:25:31.933Z,99439.63
2022-09-11T01:28:00.986Z,99442.00
2022-09-11T01:30:38.367Z,99442.38
2022-09-11T01:33:28.066Z,99438.13
2022-09-11T01:36:29.034Z,99450.81
2022-09-11T01:38:58.507Z,99448.13
2022-09-11T01:41:31.981Z,99456.22
2022-09-11T01:44:03.987Z,99461.97
2022-09-11T01:46:35.896Z,99466.19
2022-09-11T01:49:12.723Z,99465.84
2022-09-11T01:51:40.457Z,99474.94
2022-09-11T01:54:12.876Z,99469.03
2022-09-11T01:56:45.373Z,99473.06
2022-09-11T01:59:16.322Z,99472.06
2022-09-11T02:01:51.165Z,99469.53
2022-09-11T02:04:33.741Z,99469.69
2022-09-11T02:07:42.440Z,99479.53
2022-09-11T02:10:17.115Z,99472.72
2022-09-11T02:13:07.314Z,99478.81
2022-09-11T02:15:41.624Z,99477.13
2022-09-11T02:18:37.862Z,99480.19
2022-09-11T02:21:04.355Z,99487.28
2022-09-11T02:23:30.774Z,99486.94
2022-09-11T02:25:57.175Z,99487.13
2022-09-11T02:28:23.908Z,99489.63
2022-09-11T02:30:50.388Z,99488.63
2022-09-11T02:33:35.904Z,99483.03
2022-09-11T02:36:26.279Z,99483.88
2022-09-11T02:39:27.384Z,99488.94
2022-09-11T02:42:21.982Z,99484.53
2022-09-11T02:44:56.654Z,99491.81
2022-09-11T02:47:43.558Z,99494.38
2022-09-11T02:50:18.981Z,99500.28
2022-09-11T02:52:54.487Z,99498.78
2022-09-11T02:55:25.240Z,99492.50
2022-09-11T02:57:59.286Z,99496.72
2022-09-11T03:00:25.741Z,99500.63
2022-09-11T03:02:53.530Z,99504.19
2022-09-11T03:05:20.571Z,99503.81
2022-09-11T03:07:47.162Z,99505.50
2022-09-11T03:10:13.631Z,99512.47
2022-09-11T03:12:39.987Z,99511.09
2022-09-11T03:15:07.214Z,99514.31
2022-09-11T03:17:33.625Z,99506.53
2022-09-11T03:20:00.003Z,99506.72
2022-09-11T03:22:26.398Z,99507.56
2022-09-11T03:24:52.763Z,99499.59
2022-09-11T03:27:19.152Z,99505.69
2022-09-11T03:29:46.387Z,99501.81
2022-09-11T03:32:12.807Z,99507.38
2022-09-11T03:34:39.125Z,99512.97
2022-09-11T03:37:05.436Z,99510.09
2022-09-11T03:39:31.782Z,99512.97
2022-09-11T03:41:58.284Z,99514.84
2022-09-11T03:44:25.515Z,99512.81
2022-09-11T03:46:52.981Z,99517.88
2022-09-11T03:49:20.279Z,99512.31
2022-09-11T03:51:47.768Z,99516.34
2022-09-11T03:54:16.016Z,99521.25
2022-09-11T03:56:42.939Z,99515.84
2022-09-11T03:59:09.349Z,99517.88
2022-09-11T04:01:35.687Z,99523.31
2022-09-11T04:04:04.611Z,99520.59
2022-09-11T04:06:34.628Z,99516.03
2022-09-11T04:09:01.289Z,99517.72
2022-09-11T04:14:11.092Z,99522.09
2022-09-11T04:16:37.831Z,99531.25
2022-09-11T04:19:04.652Z,99535.81
2022-09-11T04:21:31.777Z,99540.69
2022-09-11T04:24:00.234Z,99531.41
2022-09-11T04:26:31.572Z,99531.25
2022-09-11T04:28:59.033Z,99530.56
2022-09-11T04:31:27.535Z,99536.66
2022-09-11T04:33:57.484Z,99536.31
2022-09-11T04:36:26.893Z,99543.59
2022-09-11T04:38:58.195Z,99536.84
2022-09-11T04:41:25.391Z,99538.03
2022-09-11T04:43:57.600Z,99541.25
2022-09-11T04:46:26.925Z,99547.81
2022-09-11T04:49:02.297Z,99545.81
2022-09-11T04:51:34.696Z,99547.81
2022-09-11T04:54:02.027Z,99548.69
2022-09-11T04:56:34.261Z,99554.94
2022-09-11T04:59:06.814Z,99560.34
2022-09-11T05:01:34.079Z,99554.94
2022-09-11T05:04:01.580Z,99556.63
2022-09-11T05:06:30.405Z,99555.25
2022-09-11T05:09:01.691Z,99560.66
2022-09-11T05:11:28.145Z,99561.00
2022-09-11T05:13:54.495Z,99567.28
2022-09-11T05:16:21.131Z,99570.81
2022-09-11T05:18:52.473Z,99566.56
2022-09-11T05:21:22.537Z,99570.16
2022-09-11T05:23:51.274Z,99569.81
2022-09-11T05:26:20.169Z,99576.56
2022-09-11T05:28:47.063Z,99574.88
2022-09-11T05:31:18.146Z,99565.75
2022-09-11T05:33:45.444Z,99575.19
2022-09-11T05:36:13.574Z,99576.41
2022-09-11T05:38:40.115Z,99585.00
2022-09-11T05:41:08.720Z,99585.00
2022-09-11T05:43:35.417Z,99590.41
2022-09-11T05:46:02.174Z,99593.81
2022-09-11T05:48:30.319Z,99598.53
2022-09-11T05:51:01.970Z,99599.75
2022-09-11T05:53:32.822Z,99606.16
2022-09-11T05:56:13.905Z,99610.19
2022-09-11T05:58:40.323Z,99615.44
2022-09-11T06:01:09.336Z,99608.00
2022-09-11T06:03:37.278Z,99615.09
2022-09-11T06:06:06.544Z,99609.34
2022-09-11T06:08:34.510Z,99623.91
2022-09-11T06:11:04.133Z,99618.66
2022-09-11T06:13:34.054Z,99628.97
2022-09-11T06:16:00.649Z,99633.88
2022-09-11T06:18:27.021Z,99638.97
2022-09-11T06:21:02.448Z,99636.41
2022-09-11T06:23:29.069Z,99640.81
2022-09-11T06:26:07.711Z,99648.41
2022-09-11T06:28:35.778Z,99648.25
2022-09-11T06:31:13.388Z,99645.19
2022-09-11T06:33:40.998Z,99642.47
2022-09-11T06:36:38.949Z,99639.13
2022-09-11T06:39:05.471Z,99652.31
2022-09-11T06:41:32.694Z,99646.06
2022-09-11T06:43:59.151Z,99648.59
2022-09-11T06:46:26.371Z,99659.06
2022-09-11T06:48:53.787Z,99659.41
2022-09-11T06:51:22.409Z,99653.31
2022-09-11T06:53:49.106Z,99650.28
2022-09-11T06:56:18.205Z,99668.19
2022-09-11T06:58:45.861Z,99667.03
2022-09-11T07:01:17.682Z,99667.03
2022-09-11T07:03:45.600Z,99658.91
2022-09-11T07:06:13.489Z,99662.44
2022-09-11T07:08:40.169Z,99672.78
2022-09-11T07:11:08.222Z,99677.84
2022-09-11T07:13:37.424Z,99664.81
2022-09-11T07:16:07.687Z,99666.50
2022-09-11T07:18:41.258Z,99669.56
2022-09-11T07:21:12.937Z,99671.94
2022-09-11T07:23:40.928Z,99666.69
2022-09-11T07:26:11.259Z,99664.81
2022-09-11T07:28:38.714Z,99670.91
2022-09-11T07:31:10.435Z,99666.66
2022-09-11T07:33:45.479Z,99670.50
2022-09-11T07:36:14.375Z,99668.28
2022-09-11T07:38:42.692Z,99664.75
2022-09-11T07:41:10.661Z,99666.63
2022-09-11T07:43:38.635Z,99666.94
2022-09-11T07:46:06.255Z,99666.41
2022-09-11T07:48:32.811Z,99669.19
2022-09-11T07:51:04.924Z,99665.25
2022-09-11T07:53:35.465Z,99666.47
2022-09-11T07:56:03.851Z,99664.09
2022-09-11T07:58:38.996Z,99666.13
2022-09-11T08:01:06.426Z,99667.53
2022-09-11T08:03:34.299Z,99667.19
2022-09-11T08:06:02.271Z,99672.41
2022-09-11T08:08:29.286Z,99673.28
2022-09-11T08:11:10.227Z,99679.03
2022-09-11T08:13:36.980Z,99679.69
2022-09-11T08:16:03.642Z,99688.28
2022-09-11T08:18:30.914Z,99686.91
2022-09-11T08:21:12.631Z,99684.09
2022-09-11T08:23:41.392Z,99679.00
2022-09-11T08:26:25.832Z,99674.53
2022-09-11T08:28:54.368Z,99679.28
2022-09-11T08:31:26.250Z,99694.13
2022-09-11T08:33:54.680Z,99685.66
2022-09-11T08:36:22.643Z,99698.38
2022-09-11T08:38:49.280Z,99696.16
2022-09-11T08:41:27.511Z,99701.00
2022-09-11T08:43:57.965Z,99697.47
2022-09-11T08:46:31.025Z,99690.31
2022-09-11T08:49:18.906Z,99697.09
2022-09-11T08:51:47.114Z,99697.75
2022-09-11T08:54:34.558Z,99702.50
2022-09-11T08:57:23.319Z,99694.78
2022-09-11T09:00:21.847Z,99703.78
2022-09-11T09:02:57.238Z,99708.88
2022-09-11T09:05:50.077Z,99716.44
2022-09-11T09:08:35.092Z,99726.78
2022-09-11T09:11:10.720Z,99729.16
2022-09-11T09:14:06.313Z,99727.75
2022-09-11T09:16:45.377Z,99721.28
2022-09-11T09:19:29.225Z,99724.38
2022-09-11T09:22:19.093Z,99723.66
2022-09-11T09:24:50.028Z,99718.63
2022-09-11T09:27:25.596Z,99714.63
2022-09-11T09:29:58.462Z,99709.75
2022-09-11T09:32:58.528Z,99705.41
2022-09-11T09:35:34.593Z,99702.41
2022-09-11T09:38:01.024Z,99703.56
2022-09-11T09:40:33.271Z,99698.50
2022-09-11T09:43:07.950Z,99704.59
2022-09-11T09:45:48.528Z,99704.22
2022-09-11T09:48:15.352Z,99696.91
2022-09-11T09:50:46.057Z,99710.84
2022-09-11T09:53:32.417Z,99708.19
2022-09-11T09:56:00.511Z,99711.72
2022-09-11T09:58:33.696Z,99713.59
2022-09-11T10:01:00.458Z,99719.03
2022-09-11T10:03:27.049Z,99711.53
2022-09-11T10:05:55.893Z,99707.06
2022-09-11T10:08:37.520Z,99709.34
2022-09-11T10:11:05.853Z,99693.53
2022-09-11T10:13:36.745Z,99692.06
2022-09-11T10:16:19.165Z,99680.16
2022-09-11T10:18:47.057Z,99675.47
2022-09-11T10:21:13.752Z,99682.41
2022-09-11T10:23:50.580Z,99681.84
2022-09-11T10:26:26.846Z,99684.47
2022-09-11T10:29:04.956Z,99679.41
2022-09-11T10:31:31.444Z,99682.31
2022-09-11T10:33:59.590Z,99672.19
2022-09-11T10:36:28.603Z,99658.59
2022-09-11T10:39:01.004Z,99671.72
2022-09-11T10:41:32.122Z,99671.53
2022-09-11T10:44:13.033Z,99665.78
2022-09-11T10:46:41.930Z,99664.84
2022-09-11T10:49:17.415Z,99658.19
2022-09-11T10:52:17.230Z,99647.91
2022-09-11T10:55:00.021Z,99662.50
2022-09-11T10:57:39.804Z,99662.69
2022-09-11T11:00:21.025Z,99659.41
2022-09-11T11:02:53.742Z,99645.91
2022-09-11T11:06:04.671Z,99651.78
2022-09-11T11:08:57.358Z,99648.47
2022-09-11T11:11:24.159Z,99650.41
2022-09-11T11:14:13.232Z,99654.06
2022-09-11T11:17:07.662Z,99651.25
2022-09-11T11:19:51.889Z,99651.53
2022-09-11T11:22:45.305Z,99644.19
2022-09-11T11:25:28.511Z,99642.19
2022-09-11T11:28:15.069Z,99637.81
2022-09-11T11:30:47.509Z,99628.94
2022-09-11T11:33:23.949Z,99628.78
2022-09-11T11:36:10.318Z,99633.72
2022-09-11T11:39:02.000Z,99628.56
2022-09-11T11:41:38.992Z,99626.66
2022-09-11T11:44:12.137Z,99632.03
2022-09-11T11:46:45.002Z,99636.75
2022-09-11T11:49:37.700Z,99632.94
2022-09-11T11:52:18.033Z,99628.47
2022-09-11T11:55:20.639Z,99628.56
2022-09-11T11:58:01.293Z,99623.78
2022-09-11T12:00:29.660Z,99621.31
2022-09-11T12:03:12.935Z,99614.84
2022-09-11T12:05:39.449Z,99623.56
2022-09-11T12:08:13.165Z,99624.19
2022-09-11T12:10:42.937Z,99617.91
2022-09-11T12:13:18.313Z,99616.63
2022-09-11T12:16:11.280Z,99626.56
2022-09-11T12:18:38.627Z,99623.56
2022-09-11T12:21:35.613Z,99619.28
2022-09-11T12:24:02.607Z,99618.88
2022-09-11T12:26:33.213Z,99610.09
2022-09-11T12:29:12.240Z,99608.84
2022-09-11T12:31:52.273Z,99613.47
2022-09-11T12:34:24.784Z,99607.34
2022-09-11T12:37:06.851Z,99617.63
2022-09-11T12:39:39.476Z,99612.16
2022-09-11T12:42:22.885Z,99602.06
2022-09-11T12:44:49.245Z,99592.97
2022-09-11T12:47:24.533Z,99602.06
2022-09-11T12:50:02.455Z,99593.28
2022-09-11T12:52:40.151Z,99589.94
2022-09-11T12:55:27.878Z,99587.38
2022-09-11T12:57:55.003Z,99585.69
2022-09-11T13:00:42.119Z,99589.94
2022-09-11T13:03:19.058Z,99584.25
2022-09-11T13:05:55.150Z,99582.78
2022-09-11T13:08:26.159Z,99584.03
2022-09-11T13:10:52.731Z,99566.78
2022-09-11T13:13:34.617Z,99568.41
2022-09-11T13:16:34.870Z,99571.31
2022-09-11T13:19:07.465Z,99572.53
2022-09-11T13:21:36.730Z,99565.69
2022-09-11T13:24:03.834Z,99558.34
2022-09-11T13:26:31.429Z,99563.16
2022-09-11T13:29:00.853Z,99553.34
2022-09-11T13:31:34.697Z,99553.78
2022-09-11T13:34:05.787Z,99552.72
2022-09-11T13:36:36.205Z,99544.69
2022-09-11T13:39:04.263Z,99545.91
2022-09-11T13:41:39.973Z,99547.66
2022-09-11T13:44:11.889Z,99543.69
2022-09-11T13:46:50.429Z,99555.66
2022-09-11T13:49:32.336Z,99546.63
2022-09-11T13:51:59.222Z,99542.03
2022-09-11T13:54:32.324Z,99541.56
2022-09-11T13:57:01.515Z,99542.81
2022-09-11T13:59:41.482Z,99528.56
2022-09-11T14:02:46.848Z,99526.88
2022-09-11T14:05:32.517Z,99525.19
2022-09-11T14:08:32.703Z,99531.72
2022-09-11T14:11:15.641Z,99519.47
2022-09-11T14:14:05.240Z,99512.13
2022-09-11T14:16:35.208Z,99509.00
2022-09-11T14:19:24.525Z,99504.13
2022-09-11T14:21:51.279Z,99498.44
2022-09-11T14:24:28.471Z,99519.06
2022-09-11T14:26:58.513Z,99509.59
2022-09-11T14:29:32.639Z,99506.88
2022-09-11T14:32:24.169Z,99504.13
2022-09-11T14:34:50.509Z,99501.84
2022-09-11T14:37:17.454Z,99504.31
2022-09-11T14:39:47.855Z,99502.25
2022-09-11T14:42:21.566Z,99501.81
2022-09-11T14:44:48.504Z,99500.97
2022-09-11T14:47:24.410Z,99497.34
2022-09-11T14:49:55.759Z,99493.75
2022-09-11T14:52:27.631Z,99492.34
2022-09-11T14:54:54.559Z,99495.72
2022-09-11T14:57:23.771Z,99497.38
2022-09-11T14:59:51.175Z,99492.38
2022-09-11T15:02:21.218Z,99497.03
2022-09-11T15:04:48.734Z,99494.31
2022-09-11T15:07:17.055Z,99489.03
2022-09-11T15:09:43.655Z,99485.22
2022-09-11T15:12:12.179Z,99477.47
2022-09-11T15:14:58.240Z,99476.72
2022-09-11T15:17:25.560Z,99472.03
2022-09-11T15:19:52.612Z,99472.28
2022-09-11T15:22:19.512Z,99468.69
2022-09-11T15:24:49.002Z,99466.66
2022-09-11T15:27:15.674Z,99459.53
2022-09-11T15:29:42.507Z,99460.81
2022-09-11T15:32:09.729Z,99462.09
2022-09-11T15:34:38.585Z,99467.97
2022-09-11T15:37:05.370Z,99466.53
2022-09-11T15:39:31.990Z,99455.13
2022-09-11T15:41:58.435Z,99456.38
2022-09-11T15:44:27.410Z,99450.16
2022-09-11T15:46:55.376Z,99453.22
2022-09-11T15:49:23.338Z,99450.31
2022-09-11T15:51:51.647Z,99456.22
2022-09-11T15:54:18.422Z,99457.06
2022-09-11T15:56:46.284Z,99455.81
2022-09-11T15:59:15.153Z,99445.25
2022-09-11T16:01:42.670Z,99447.34
2022-09-11T16:04:11.677Z,99449.28
2022-09-11T16:06:40.669Z,99456.84
2022-09-11T16:09:11.127Z,99451.81
2022-09-11T16:11:39.815Z,99455.44
2022-09-11T16:14:06.868Z,99453.13
2022-09-11T16:16:34.311Z,99455.88
2022-09-11T16:19:01.677Z,99451.25
2022-09-11T16:21:28.581Z,99464.72
2022-09-11T16:24:00.762Z,99459.88
2022-09-11T16:26:28.978Z,99464.72
2022-09-11T16:28:55.531Z,99457.56
2022-09-11T16:31:21.998Z,99450.66
2022-09-11T16:33:49.907Z,99437.00
2022-09-11T16:36:21.118Z,99444.97
2022-09-11T16:38:50.179Z,99440.16
2022-09-11T16:41:21.426Z,99447.94
2022-09-11T16:43:50.883Z,99445.81
2022-09-11T16:46:22.798Z,99444.16
2022-09-11T16:48:53.968Z,99441.22
2022-09-11T16:51:22.240Z,99448.97
2022-09-11T16:53:49.249Z,99444.75
2022-09-11T16:56:18.916Z,99446.03
2022-09-11T16:58:46.569Z,99449.38
2022-09-11T17:01:19.355Z,99445.13
2022-09-11T17:03:48.102Z,99449.97
2022-09-11T17:06:16.191Z,99449.53
2022-09-11T17:08:44.675Z,99450.50
2022-09-11T17:11:13.979Z,99456.13
2022-09-11T17:13:42.548Z,99455.78
2022-09-11T17:16:16.087Z,99459.22
2022-09-11T17:18:48.628Z,99464.09
2022-09-11T17:21:16.289Z,99476.22
2022-09-11T17:23:42.741Z,99476.47
2022-09-11T17:26:12.524Z,99473.56
2022-09-11T17:28:40.359Z,99474.50
2022-09-11T17:31:09.052Z,99477.44
2022-09-11T17:33:38.461Z,99478.97
2022-09-11T17:36:06.002Z,99474.41
2022-09-11T17:38:32.887Z,99476.38
2022-09-11T17:41:01.674Z,99487.75
2022-09-11T17:43:28.089Z,99486.41
2022-09-11T17:46:07.190Z,99482.59
2022-09-11T17:48:33.778Z,99501.75
2022-09-11T17:51:06.713Z,99508.00
2022-09-11T17:53:38.481Z,99504.75
2022-09-11T17:56:09.688Z,99516.41
2022-09-11T17:58:37.065Z,99512.09
2022-09-11T18:01:04.166Z,99513.16
2022-09-11T18:03:31.742Z,99519.53
2022-09-11T18:05:59.597Z,99517.97
2022-09-11T18:08:27.273Z,99520.13
2022-09-11T18:10:59.231Z,99515.63
2022-09-11T18:13:27.689Z,99508.25
2022-09-11T18:15:56.096Z,99514.38
2022-09-11T18:18:23.631Z,99514.22
2022-09-11T18:20:53.811Z,99512.25
2022-09-11T18:23:23.908Z,99520.53
2022-09-11T18:25:51.440Z,99512.25
2022-09-11T18:28:20.138Z,99516.50
2022-09-11T18:30:47.288Z,99515.34
2022-09-11T18:33:16.526Z,99529.72
2022-09-11T18:35:44.023Z,99530.59
2022-09-11T18:38:10.794Z,99529.59
2022-09-11T18:40:37.524Z,99529.75
2022-09-11T18:43:05.347Z,99535.66
2022-09-11T18:45:35.467Z,99543.78
2022-09-11T18:48:03.301Z,99547.34
2022-09-11T18:50:29.923Z,99550.38
2022-09-11T18:52:56.562Z,99550.72
2022-09-11T18:55:22.995Z,99546.63
2022-09-11T18:57:50.578Z,99555.94
2022-09-11T19:00:18.290Z,99556.75
2022-09-11T19:02:46.675Z,99561.97
2022-09-11T19:05:15.917Z,99559.78
2022-09-11T19:07:43.885Z,99556.72
2022-09-11T19:10:12.542Z,99558.19
2022-09-11T19:12:40.769Z,99555.47
2022-09-11T19:15:08.843Z,99554.44
2022-09-11T19:17:36.739Z,99562.16
2022-09-11T19:20:09.620Z,99561.59
2022-09-11T19:22:36.231Z,99566.31
2022-09-11T19:25:02.797Z,99575.22
2022-09-11T19:27:31.575Z,99570.00
2022-09-11T19:29:58.234Z,99574.56
2022-09-11T19:32:25.289Z,99575.72
2022-09-11T19:34:51.790Z,99570.09
2022-09-11T19:37:20.898Z,99567.03
2022-09-11T19:39:51.817Z,99571.59
2022-09-11T19:42:18.857Z,99580.16
2022-09-11T19:44:45.456Z,99581.50
2022-09-11T19:47:12.419Z,99577.44
2022-09-11T19:49:38.833Z,99578.38
2022-09-11T19:52:06.458Z,99573.16
2022-09-11T19:54:34.583Z,99586.78
2022-09-11T19:57:02.228Z,99585.94
2022-09-11T19:59:28.665Z,99585.41
2022-09-11T20:01:55.210Z,99586.91
2022-09-11T20:04:22.042Z,99591.63
2022-09-11T20:09:30.480Z,99590.75
2022-09-11T20:12:00.519Z,99595.78
2022-09-11T20:14:27.565Z,99594.94
2022-09-11T20:16:54.114Z,99590.53
2022-09-11T20:19:20.572Z,99596.63
2022-09-11T20:21:47.056Z,99595.78
2022-09-11T20:24:14.836Z,99597.44
2022-09-11T20:26:41.378Z,99598.31
2022-09-11T20:29:12.124Z,99593.63
2022-09-11T20:31:48.684Z,99591.22
2022-09-11T20:34:20.024Z,99584.47
2022-09-11T20:36:46.875Z,99592.56
2022-09-11T20:39:14.343Z,99582.22
2022-09-11T20:41:41.134Z,99587.09
2022-09-11T20:44:07.987Z,99577.28
2022-09-11T20:46:34.503Z,99581.00
2022-09-11T20:49:01.058Z,99583.31
2022-09-11T20:51:27.895Z,99573.00
2022-09-11T20:53:55.572Z,99569.63
2022-09-11T20:56:24.946Z,99569.06
2022-09-11T20:58:52.043Z,99570.94
2022-09-11T21:01:21.550Z,99570.22
2022-09-11T21:03:56.325Z,99572.22
2022-09-11T21:06:26.340Z,99572.22
2022-09-11T21:08:55.851Z,99564.97
2022-09-11T21:11:23.602Z,99564.97
2022-09-11T21:13:50.087Z,99562.28
2022-09-11T21:16:17.346Z,99563.47
2022-09-11T21:18:53.191Z,99563.31
2022-09-11T21:21:20.863Z,99573.06
2022-09-11T21:23:48.088Z,99561.44
2022-09-11T21:26:17.030Z,99558.06
2022-09-11T21:28:43.558Z,99557.38
2022-09-11T21:31:10.705Z,99554.69
2022-09-11T21:33:38.134Z,99550.13
2022-09-11T21:36:05.795Z,99553.81
2022-09-11T21:38:32.903Z,99551.13
2022-09-11T21:41:01.675Z,99550.75
2022-09-11T21:43:28.675Z,99543.75
2022-09-11T21:45:55.460Z,99546.59
2022-09-11T21:48:22.085Z,99541.53
2022-09-11T21:50:48.706Z,99543.50
2022-09-11T21:53:15.597Z,99546.81
2022-09-11T21:55:44.786Z,99539.88
2022-09-11T21:58:17.824Z,99535.53
2022-09-11T22:00:45.288Z,99542.59
2022-09-11T22:03:12.429Z,99548.50
2022-09-11T22:05:42.922Z,99545.13
2022-09-11T22:08:10.479Z,99545.56
2022-09-11T22:10:42.648Z,99547.88
2022-09-11T22:13:10.510Z,99546.19
2022-09-11T22:15:41.206Z,99539.66
2022-09-11T22:18:08.241Z,99550.56
2022-09-11T22:20:37.547Z,99550.56
2022-09-11T22:23:04.916Z,99551.72
2022-09-11T22:25:31.831Z,99542.28
2022-09-11T22:27:58.377Z,99550.78
2022-09-11T22:30:24.871Z,99552.47
2022-09-11T22:32:51.374Z,99558.19
2022-09-11T22:35:17.765Z,99556.78
2022-09-11T22:37:44.261Z,99551.13
2022-09-11T22:40:10.873Z,99548.63
2022-09-11T22:42:37.407Z,99554.06
2022-09-11T22:45:04.079Z,99546.28
2022-09-11T22:47:30.689Z,99546.13
2022-09-11T22:49:58.226Z,99540.06
2022-09-11T22:52:24.800Z,99540.34
2022-09-11T22:54:51.261Z,99535.41
2022-09-11T22:57:17.693Z,99539.09
2022-09-11T22:59:46.984Z,99534.72
2022-09-11T23:02:14.791Z,99540.22
2022-09-11T23:05:01.437Z,99539.69
2022-09-11T23:07:28.037Z,99532.75
2022-09-11T23:09:54.557Z,99532.03
2022-09-11T23:12:20.916Z,99531.47
2022-09-11T23:14:47.524Z,99530.50
2022-09-11T23:17:14.130Z,99526.09
2022-09-11T23:19:40.596Z,99528.38
2022-09-11T23:22:07.048Z,99531.06
2022-09-11T23:24:33.978Z,99528.38
2022-09-11T23:27:00.341Z,99532.22
2022-09-11T23:29:27.193Z,99535.91
2022-09-11T23:31:56.394Z,99527.28
2022-09-11T23:34:22.855Z,99529.13
2022-09-11T23:36:49.225Z,99526.88
2022-09-11T23:39:15.979Z,99527.91
2022-09-11T23:41:42.382Z,99523.78
2022-09-11T23:44:09.066Z,99520.25
2022-09-11T23:46:35.485Z,99520.69
2022-09-11T23:49:02.076Z,99521.69
2022-09-11T23:51:28.514Z,99516.31
2022-09-11T23:53:55.062Z,99520.28
2022-09-11T23:56:22.367Z,99521.28
2022-09-11T23:58:49.867Z,99518.59
